Impacts METAR Board
IDs:

KINW - Winslow/Lindberg Rgn, AZ, US

Updated at: 2000 UTC 21 Sep 2021
Potential Impact None Slight Moderate High
Time 21/08Z 21/09Z 21/10Z 21/11Z 21/12Z 21/13Z 21/14Z 21/15Z 21/16Z 21/17Z 21/18Z 21/19Z 21/20Z
Temp55 53 50 48 50 48 52 60 64 69 73 74 77
Dewpt32 32 32 30 31 31 32 31 30 29 23 21 21
Altim30.29 30.30 30.32 30.34 30.36 30.39 30.41 30.44 30.46 30.46 30.46 30.44 30.42
VIS10 10 10 10 10 10 10 10 10 10 10 10 10
CIG-- -- -- -- -- -- -- -- -- -- -- -- --
CoverCLRCLRCLRCLRCLRCLRCLRCLRCLRCLRCLRCLRCLR
FltCatVFRVFRVFRVFRVFRVFRVFRVFRVFRVFRVFRVFRVFR
WX--------------------------
WDir270230270280002803403400801700
WSpd4 6 4 3 0 0 5 5 6 5 4 3 4
WGst-- -- -- -- -- -- -- -- -- -- -- -- --
Raw hourly METARs
KINW 210756Z AUTO 27004KT 10SM CLR 13/00 A3029 RMK AO2 SLP194 T01280000
KINW 210856Z AUTO 23006KT 10SM CLR 12/00 A3030 RMK AO2 SLP201 T01170000 53013
KINW 210956Z AUTO 27004KT 10SM CLR 10/00 A3032 RMK AO2 SLP208 T01000000
KINW 211056Z AUTO 28003KT 10SM CLR 09/M01 A3034 RMK AO2 SLP217 T00891011
KINW 211156Z AUTO 00000KT 10SM CLR 10/M01 A3036 RMK AO2 SLP227 T01001006 10178 20083 53018
KINW 211256Z AUTO 00000KT 10SM CLR 09/M01 A3039 RMK AO2 SLP240 T00891006
KINW 211356Z AUTO 28005KT 10SM CLR 11/00 A3041 RMK AO2 SLP248 T01110000
KINW 211456Z AUTO 34005KT 10SM CLR 16/M01 A3044 RMK AO2 SLP259 T01561006 52022
KINW 211556Z AUTO 34006KT 10SM CLR 18/M01 A3046 RMK AO2 SLP263 T01781011
KINW 211656Z AUTO VRB05KT 10SM CLR 21/M02 A3046 RMK AO2 SLP260 T02061017
KINW 211756Z AUTO 08004KT 10SM CLR 23/M05 A3046 RMK AO2 SLP253 T02281050 10228 20083 50005
KINW 211856Z AUTO 17003KT 10SM CLR 23/M06 A3044 RMK AO2 SLP252 T02331061
KINW 211956Z AUTO VRB04KT 10SM CLR 25/M06 A3042 RMK AO2 SLP245 T02501061



Page loaded:  20:49 UTC  |   01:49 PM Pacific  |   02:49 PM Mountain  |   03:49 PM Central  |   04:49 PM Eastern

 

ADVISORIES

FORECASTS

FORECASTS

OBSERVATIONS

USER TOOLS

ABOUT US